Time;durP1;ratioP1;P1;durP2;ratioP2;P2;SDS_P1;SDS_P2;PMS_P1;PMS_P2;Temp;Humidity;BMP_temperature;BMP_pressure;BME280_temperature;BME280_humidity;BME280_pressure;Samples;Min_cycle;Max_cycle;Signal;HPM_P1;HPM_P2
2023/03/21 00:01:02;;;;;;;25.33;18.47;;;;;;;12.52;100.00;101318.56;2082357;28;20198;-68
2023/03/21 00:02:03;;;;;;;22.63;16.30;;;;;;;12.58;100.00;101327.97;2082089;28;20169;-68
2023/03/21 00:03:04;;;;;;;28.63;18.93;;;;;;;12.01;100.00;101240.59;2082175;28;20934;-69
2023/03/21 00:04:04;;;;;;;23.80;15.00;;;;;;;12.55;100.00;101333.59;2082223;28;20182;-69
2023/03/21 00:05:05;;;;;;;28.63;16.10;;;;;;;12.55;100.00;101325.25;2082224;28;20417;-68
2023/03/21 00:06:07;;;;;;;24.17;15.40;;;;;;;12.52;100.00;101323.31;2082204;28;20211;-69
2023/03/21 00:07:08;;;;;;;26.23;15.87;;;;;;;12.51;100.00;101325.31;2082241;28;20180;-69
2023/03/21 00:08:08;;;;;;;17.33;11.93;;;;;;;12.49;100.00;101318.63;2082153;28;20454;-68
2023/03/21 00:09:09;;;;;;;21.20;13.20;;;;;;;12.47;100.00;101316.28;2082249;28;20175;-68
2023/03/21 00:10:10;;;;;;;19.30;9.20;;;;;;;12.48;100.00;101309.50;2082146;28;20208;-69
2023/03/21 00:11:11;;;;;;;14.70;7.93;;;;;;;12.51;100.00;101310.66;2081823;28;20190;-68
2023/03/21 00:12:13;;;;;;;12.40;8.00;;;;;;;12.48;100.00;101314.28;2082046;28;20189;-68
2023/03/21 00:13:14;;;;;;;28.47;13.10;;;;;;;12.50;100.00;101309.09;2082164;28;20426;-68
2023/03/21 00:14:18;;;;;;;32.57;15.40;;;;;;;12.54;100.00;101310.56;2081651;28;20515;-68
2023/03/21 00:15:19;;;;;;;13.10;7.10;;;;;;;12.46;100.00;101305.59;2081964;28;20452;-68
2023/03/21 00:16:20;;;;;;;15.07;9.10;;;;;;;12.46;100.00;101302.81;2082073;28;20419;-69
2023/03/21 00:17:21;;;;;;;13.83;9.90;;;;;;;12.51;100.00;101307.88;2082045;28;20179;-68
2023/03/21 00:18:22;;;;;;;13.27;9.37;;;;;;;12.50;100.00;101301.50;2082144;28;20183;-69
2023/03/21 00:19:25;;;;;;;9.23;5.87;;;;;;;12.46;100.00;101286.13;2081897;28;20437;-68
2023/03/21 00:20:25;;;;;;;13.97;11.17;;;;;;;12.55;100.00;101300.25;2082019;28;20852;-69
2023/03/21 00:21:32;;;;;;;14.43;9.97;;;;;;;12.59;100.00;101318.41;2081964;28;20500;-68
2023/03/21 00:22:34;;;;;;;12.43;9.23;;;;;;;12.56;100.00;101299.78;2082105;28;20181;-69
2023/03/21 00:23:35;;;;;;;17.33;11.77;;;;;;;12.46;100.00;101275.00;2081454;28;20438;-69
2023/03/21 00:24:36;;;;;;;17.57;13.23;;;;;;;12.58;100.00;101296.59;2081772;28;20435;-68
2023/03/21 00:25:36;;;;;;;18.77;13.60;;;;;;;12.55;100.00;101303.03;2081967;28;20627;-69
2023/03/21 00:26:37;;;;;;;19.00;13.00;;;;;;;12.51;100.00;101297.50;2081994;28;20192;-69
2023/03/21 00:27:37;;;;;;;17.20;11.80;;;;;;;12.47;100.00;101296.81;2081935;28;20564;-69
2023/03/21 00:28:40;;;;;;;15.10;10.47;;;;;;;12.43;100.00;101287.78;2081704;28;20238;-69
2023/03/21 00:29:40;;;;;;;12.43;9.67;;;;;;;12.41;100.00;101292.19;2081930;28;20181;-68
2023/03/21 00:30:41;;;;;;;14.00;10.60;;;;;;;12.44;100.00;101292.13;2082003;28;20499;-68
2023/03/21 00:31:41;;;;;;;12.50;8.90;;;;;;;12.45;100.00;101298.47;2081924;28;20170;-69
2023/03/21 00:32:42;;;;;;;11.57;9.30;;;;;;;12.46;100.00;101302.81;2073086;28;20687;-68
2023/03/21 00:33:43;;;;;;;10.33;7.50;;;;;;;12.46;100.00;101291.69;2073125;28;20174;-69
2023/03/21 00:34:44;;;;;;;13.90;8.27;;;;;;;12.14;100.00;101239.53;2081854;28;20208;-69
2023/03/21 00:35:46;;;;;;;10.47;8.20;;;;;;;11.23;100.00;101090.63;2081858;28;20185;-68
2023/03/21 00:36:47;;;;;;;12.80;8.50;;;;;;;12.48;100.00;101280.91;2081868;28;20925;-68
2023/03/21 00:37:47;;;;;;;10.73;7.90;;;;;;;12.26;100.00;101252.81;2081723;28;20487;-69
2023/03/21 00:38:48;;;;;;;9.63;7.37;;;;;;;12.45;100.00;101274.22;2081948;28;20251;-69
2023/03/21 00:39:48;;;;;;;8.97;6.50;;;;;;;12.51;100.00;101285.63;2081862;28;20642;-69
2023/03/21 00:40:49;;;;;;;9.23;6.80;;;;;;;12.51;100.00;101277.28;2081898;28;20173;-66
2023/03/21 00:41:50;;;;;;;9.43;6.50;;;;;;;12.54;100.00;101279.19;2081552;28;20188;-66
2023/03/21 00:42:50;;;;;;;7.97;5.60;;;;;;;12.44;100.00;101258.75;2081575;28;20466;-69
2023/03/21 00:43:54;;;;;;;9.03;5.97;;;;;;;12.03;100.00;101194.53;2081846;28;20216;-69
2023/03/21 00:44:54;;;;;;;9.70;5.57;;;;;;;12.64;100.00;101270.63;2081905;28;20201;-69
2023/03/21 00:45:57;;;;;;;8.87;5.90;;;;;;;12.66;100.00;101286.88;2081869;28;20422;-70
2023/03/21 00:47:01;;;;;;;8.03;5.67;;;;;;;12.69;100.00;101284.03;2081735;28;20181;-69
2023/03/21 00:48:02;;;;;;;9.37;6.50;;;;;;;12.72;100.00;101282.38;2081878;28;20432;-69
2023/03/21 00:49:02;;;;;;;8.63;5.80;;;;;;;12.73;100.00;101279.19;2081870;28;20427;-69
2023/03/21 00:50:04;;;;;;;8.70;5.73;;;;;;;12.41;100.00;101226.25;2081785;28;20189;-69
2023/03/21 00:51:12;;;;;;;6.83;5.60;;;;;;;12.78;100.00;101277.88;2081628;28;20654;-69
2023/03/21 00:52:12;;;;;;;6.23;4.43;;;;;;;12.75;100.00;101282.28;2073958;28;20762;-69
2023/03/21 00:53:14;;;;;;;8.20;5.43;;;;;;;12.78;100.00;101289.00;2073547;28;20424;-69
2023/03/21 00:54:15;;;;;;;9.10;5.63;;;;;;;12.79;100.00;101274.66;2079498;28;20230;-69
2023/03/21 00:55:17;;;;;;;8.60;5.97;;;;;;;12.84;100.00;101285.28;2081720;28;20489;-69
2023/03/21 00:56:17;;;;;;;6.87;5.23;;;;;;;12.88;100.00;101283.22;2081800;28;20181;-68
2023/03/21 00:57:18;;;;;;;8.37;5.80;;;;;;;12.94;100.00;101284.25;2081812;28;20408;-68
2023/03/21 00:58:19;;;;;;;6.40;5.17;;;;;;;12.76;100.00;101258.06;2081777;28;20610;-69
2023/03/21 00:59:19;;;;;;;8.33;5.00;;;;;;;12.97;100.00;101288.19;2081602;28;20189;-69
2023/03/21 01:00:21;;;;;;;6.00;4.57;;;;;;;12.98;100.00;101287.78;2077821;28;20192;-69
2023/03/21 01:01:21;;;;;;;7.60;4.67;;;;;;;13.00;100.00;101301.22;2081935;28;20194;-69
2023/03/21 01:02:25;;;;;;;5.73;4.20;;;;;;;12.92;100.00;101269.97;2081790;28;20431;-69
2023/03/21 01:03:25;;;;;;;10.07;4.37;;;;;;;12.15;100.00;101141.06;2081706;28;20183;-69
2023/03/21 01:04:27;;;;;;;5.27;4.53;;;;;;;13.09;100.00;101285.53;2081694;28;20425;-69
2023/03/21 01:06:12;;;;;;;7.83;4.63;;;;;;;12.96;100.00;101276.28;2080229;28;20258;-69
2023/03/21 01:06:54;;;;;;;6.50;4.73;;;;;;;13.04;100.00;101311.09;2076026;28;20437;-69
2023/03/21 01:07:54;;;;;;;6.80;4.80;;;;;;;13.03;100.00;101278.91;2081830;28;20506;-69
2023/03/21 01:08:55;;;;;;;7.10;4.87;;;;;;;13.10;100.00;101295.44;2081394;28;20496;-69
2023/03/21 01:09:55;;;;;;;8.20;4.80;;;;;;;12.40;100.00;101168.34;2081554;28;20256;-69
2023/03/21 01:10:56;;;;;;;8.13;4.97;;;;;;;13.14;100.00;101285.00;2081631;28;20234;-69
2023/03/21 01:11:56;;;;;;;8.13;5.33;;;;;;;13.19;100.00;101283.69;2081708;28;20206;-68
2023/03/21 01:12:56;;;;;;;8.17;5.30;;;;;;;13.16;100.00;101276.22;2081349;28;20173;-68
2023/03/21 01:13:57;;;;;;;6.33;4.70;;;;;;;12.23;100.00;101136.94;2081546;28;20175;-69
2023/03/21 01:14:58;;;;;;;7.93;4.93;;;;;;;13.19;100.00;101275.34;2081504;28;20750;-69
2023/03/21 01:15:59;;;;;;;9.37;5.37;;;;;;;13.30;100.00;101296.16;2081550;28;20254;-69
2023/03/21 01:17:00;;;;;;;7.57;4.87;;;;;;;12.78;100.00;101208.34;2081574;28;20215;-69
2023/03/21 01:18:01;;;;;;;9.23;5.27;;;;;;;13.37;100.00;101286.84;2081600;28;20460;-69
2023/03/21 01:19:03;;;;;;;7.97;5.23;;;;;;;13.36;100.00;101286.06;2081433;28;20207;-69
2023/03/21 01:20:05;;;;;;;9.67;5.70;;;;;;;13.36;100.00;101285.25;2081605;28;20190;-69
2023/03/21 01:21:09;;;;;;;8.17;5.63;;;;;;;12.83;100.00;101188.34;2081308;28;20437;-69
2023/03/21 01:22:11;;;;;;;8.37;5.70;;;;;;;13.49;100.00;101278.56;2081613;28;20511;-69
2023/03/21 01:23:14;;;;;;;8.33;5.80;;;;;;;13.49;100.00;101275.00;2081427;28;20424;-69
2023/03/21 01:24:14;;;;;;;9.47;5.73;;;;;;;12.27;100.00;101090.41;2081728;28;20459;-68
2023/03/21 01:25:15;;;;;;;8.60;5.57;;;;;;;13.47;100.00;101278.22;2081554;28;20577;-69
2023/03/21 01:26:15;;;;;;;7.63;6.00;;;;;;;13.58;100.00;101275.94;2081680;28;20182;-69
2023/03/21 01:27:16;;;;;;;8.70;5.97;;;;;;;13.62;100.00;101276.63;2081562;28;20182;-69
2023/03/21 01:28:17;;;;;;;8.93;6.20;;;;;;;13.64;100.00;101271.44;2081387;28;20248;-69
2023/03/21 01:29:17;;;;;;;8.03;5.67;;;;;;;13.65;100.00;101277.75;2081545;28;20474;-68
2023/03/21 01:30:18;;;;;;;9.83;5.40;;;;;;;13.63;100.00;101271.84;2081542;28;20185;-69
2023/03/21 01:31:18;;;;;;;10.77;5.80;;;;;;;13.70;100.00;101268.88;2081621;28;20177;-70
2023/03/21 01:32:19;;;;;;;21.00;7.80;;;;;;;13.76;100.00;101269.91;2081308;28;20178;-70
2023/03/21 01:33:21;;;;;;;11.10;6.03;;;;;;;13.69;100.00;101262.50;2081719;28;20179;-70
2023/03/21 01:34:21;;;;;;;8.10;5.70;;;;;;;13.78;100.00;101261.91;2074386;28;20207;-69
2023/03/21 01:35:22;;;;;;;12.00;5.93;;;;;;;13.80;100.00;101265.03;2079061;28;20440;-70
2023/03/21 01:36:25;;;;;;;8.77;5.37;;;;;;;13.71;100.00;101253.72;2081440;28;20196;-69
2023/03/21 01:37:25;;;;;;;10.17;5.70;;;;;;;13.74;100.00;101266.78;2081133;28;20432;-70
2023/03/21 01:38:26;;;;;;;7.17;5.30;;;;;;;13.76;100.00;101272.69;2081635;28;20459;-70
2023/03/21 01:39:27;;;;;;;7.13;5.57;;;;;;;13.75;100.00;101266.34;2081449;28;20528;-70
2023/03/21 01:40:29;;;;;;;8.33;5.67;;;;;;;13.82;100.00;101277.28;2081555;28;20452;-70
2023/03/21 01:41:33;;;;;;;9.00;6.07;;;;;;;13.82;100.00;101273.72;2081063;28;20194;-70
2023/03/21 01:42:34;;;;;;;11.10;6.33;;;;;;;12.43;100.00;101065.41;2081404;28;20483;-70
2023/03/21 01:43:35;;;;;;;8.33;5.90;;;;;;;12.89;100.00;101150.44;2081225;28;20447;-70
2023/03/21 01:44:56;;;;;;;8.27;6.07;;;;;;;13.73;100.00;101274.34;2081611;28;20181;-70
2023/03/21 01:46:00;;;;;;;8.90;6.53;;;;;;;13.70;100.00;101269.66;2081057;28;20963;-70
2023/03/21 01:47:00;;;;;;;8.47;6.00;;;;;;;13.63;100.00;101269.84;2076613;28;20432;-70
2023/03/21 01:48:01;;;;;;;9.40;6.00;;;;;;;13.50;100.00;101255.06;2073493;28;20447;-70
2023/03/21 01:49:09;;;;;;;8.23;5.90;;;;;;;13.65;100.00;101272.19;2073320;28;20172;-70
2023/03/21 01:50:10;;;;;;;7.80;5.60;;;;;;;13.67;100.00;101269.75;2073756;28;20180;-69
2023/03/21 01:51:12;;;;;;;8.73;6.10;;;;;;;13.67;100.00;101264.97;2081467;28;20422;-70
2023/03/21 01:52:36;;;;;;;9.80;5.93;;;;;;;13.69;100.00;101258.97;2073730;28;20633;-70
2023/03/21 01:53:38;;;;;;;8.53;6.03;;;;;;;13.61;100.00;101258.38;2073298;28;20443;-69
2023/03/21 01:54:40;;;;;;;9.13;6.10;;;;;;;13.67;100.00;101253.81;2080974;28;20472;-69
2023/03/21 01:55:41;;;;;;;9.03;6.03;;;;;;;13.70;100.00;101258.53;2081492;28;20418;-70
2023/03/21 01:56:45;;;;;;;10.17;6.30;;;;;;;13.66;100.00;101255.03;2081353;28;20930;-70
2023/03/21 01:57:53;;;;;;;7.70;5.70;;;;;;;13.71;100.00;101248.16;2081383;28;20454;-70
2023/03/21 01:58:57;;;;;;;7.90;5.30;;;;;;;13.75;100.00;101246.06;2081438;28;20945;-68
2023/03/21 02:00:11;;;;;;;7.43;5.80;;;;;;;13.76;100.00;101247.63;2080933;28;20651;-68
2023/03/21 02:01:12;;;;;;;10.10;5.90;;;;;;;13.67;100.00;101223.19;2081319;28;20786;-69
2023/03/21 02:02:24;;;;;;;9.13;5.70;;;;;;;13.83;100.00;101250.22;2081410;28;20419;-69
2023/03/21 02:03:28;;;;;;;8.40;6.03;;;;;;;13.04;100.00;101126.66;2081334;28;20175;-69
2023/03/21 02:04:29;;;;;;;10.27;5.90;;;;;;;13.85;100.00;101254.16;2081105;28;20419;-68
2023/03/21 02:05:37;;;;;;;8.13;5.67;;;;;;;13.58;100.00;101242.50;2081350;28;20429;-69
2023/03/21 02:06:59;;;;;;;10.83;6.40;;;;;;;13.86;100.00;101249.34;2081453;28;20168;-69
2023/03/21 02:08:00;;;;;;;8.53;5.87;;;;;;;13.84;100.00;101249.78;2081413;28;20419;-68
2023/03/21 02:09:07;;;;;;;8.67;5.90;;;;;;;13.85;100.00;101245.00;2081272;28;20812;-69
2023/03/21 02:10:11;;;;;;;7.93;5.30;;;;;;;13.79;100.00;101232.81;2081292;28;20414;-68
2023/03/21 02:11:11;;;;;;;7.23;5.53;;;;;;;13.85;100.00;101245.78;2081307;28;20419;-68
2023/03/21 02:12:12;;;;;;;7.70;5.40;;;;;;;13.84;100.00;101244.19;2081343;28;20495;-69
2023/03/21 02:13:13;;;;;;;9.33;6.07;;;;;;;13.87;100.00;101245.31;2081401;28;20245;-68
2023/03/21 02:14:16;;;;;;;8.90;5.80;;;;;;;13.94;100.00;101239.56;2081199;28;20251;-68
2023/03/21 02:15:17;;;;;;;7.90;5.77;;;;;;;13.97;100.00;101236.69;2081162;28;20187;-68
2023/03/21 02:16:42;;;;;;;11.23;6.63;;;;;;;13.99;100.00;101250.19;2081308;28;20419;-68
2023/03/21 02:18:10;;;;;;;6.93;5.53;;;;;;;13.94;100.00;101231.97;2071547;28;20217;-68
2023/03/21 02:19:49;;;;;;;11.37;6.20;;;;;;;13.89;100.00;101235.31;2081072;28;20477;-68
2023/03/21 02:21:08;;;;;;;14.30;6.07;;;;;;;13.88;100.00;101238.56;2081413;28;20436;-69
2023/03/21 02:22:23;;;;;;;11.20;6.20;;;;;;;13.83;100.00;101239.84;2081314;28;20395;-68
2023/03/21 02:23:40;;;;;;;9.47;6.10;;;;;;;13.86;100.00;101238.97;2081315;28;20931;-68
2023/03/21 02:25:02;;;;;;;10.23;6.20;;;;;;;13.85;100.00;101236.63;2081364;28;20494;-69
2023/03/21 02:26:26;;;;;;;9.70;6.03;;;;;;;13.85;100.00;101243.00;2081289;28;20415;-69
2023/03/21 02:27:30;;;;;;;23.73;12.80;;;;;;;13.87;100.00;101245.31;2081298;28;20922;-69
2023/03/21 02:28:52;;;;;;;15.50;9.10;;;;;;;13.84;100.00;101246.22;2081279;28;20507;-69
2023/03/21 02:30:14;;;;;;;11.83;6.37;;;;;;;13.80;100.00;101246.31;2081154;28;20913;-69
2023/03/21 02:31:35;;;;;;;9.37;6.20;;;;;;;13.78;100.00;101240.38;2081019;28;20425;-68
2023/03/21 02:33:06;;;;;;;11.40;6.67;;;;;;;13.80;100.00;101242.75;2081097;28;20418;-69
2023/03/21 02:34:09;;;;;;;11.23;5.93;;;;;;;13.82;100.00;101238.28;2081328;28;20862;-69
2023/03/21 02:35:24;;;;;;;8.90;5.70;;;;;;;13.81;100.00;101239.53;2081087;28;20482;-69
2023/03/21 02:36:46;;;;;;;8.70;5.97;;;;;;;13.80;100.00;101237.97;2075925;28;20936;-69
2023/03/21 02:37:55;;;;;;;8.37;5.57;;;;;;;13.77;100.00;101229.69;2064614;28;20427;-69
2023/03/21 02:39:25;;;;;;;8.10;5.30;;;;;;;13.71;100.00;101218.31;2078367;28;20443;-68
2023/03/21 02:40:40;;;;;;;8.80;5.30;;;;;;;13.79;100.00;101236.38;2084426;28;20498;-69
2023/03/21 02:41:53;;;;;;;9.40;5.97;;;;;;;13.83;100.00;101231.50;2081279;28;20414;-69
2023/03/21 02:43:16;;;;;;;10.93;5.73;;;;;;;13.86;100.00;101229.84;2081193;28;20498;-69
2023/03/21 02:44:31;;;;;;;7.93;5.60;;;;;;;13.84;100.00;101243.44;2081368;28;20400;-68
2023/03/21 02:45:39;;;;;;;8.83;4.80;;;;;;;13.81;100.00;101231.16;2081250;28;20409;-68
2023/03/21 02:47:04;;;;;;;7.97;5.20;;;;;;;13.84;100.00;101235.84;2081237;28;20435;-69
2023/03/21 02:48:12;;;;;;;9.30;5.70;;;;;;;13.87;100.00;101239.75;2082810;28;20421;-68
2023/03/21 02:49:23;;;;;;;7.20;5.23;;;;;;;13.88;100.00;101232.97;2082489;28;20426;-69
2023/03/21 02:50:26;;;;;;;8.70;5.53;;;;;;;13.73;100.00;101207.50;2082773;28;20424;-66
2023/03/21 02:51:29;;;;;;;10.10;4.90;;;;;;;13.89;100.00;101231.75;2082749;28;20430;-66
2023/03/21 02:52:34;;;;;;;9.03;4.77;;;;;;;13.92;100.00;101253.94;2082678;28;20410;-66
2023/03/21 02:53:37;;;;;;;9.13;5.07;;;;;;;13.82;100.00;101212.44;2082805;28;21024;-66
2023/03/21 02:54:42;;;;;;;7.23;5.10;;;;;;;13.56;100.00;101169.78;2073987;28;20464;-66
2023/03/21 02:55:44;;;;;;;6.63;4.80;;;;;;;13.99;100.00;101230.66;2079717;28;20818;-66
2023/03/21 02:56:47;;;;;;;9.97;5.37;;;;;;;14.01;100.00;101236.56;2074539;28;20421;-66
2023/03/21 02:57:50;;;;;;;9.83;5.83;;;;;;;14.00;100.00;101240.59;2074513;28;20450;-66
2023/03/21 02:58:51;;;;;;;8.50;4.77;;;;;;;13.75;100.00;101201.50;2079813;28;20424;-65
2023/03/21 02:59:53;;;;;;;10.40;5.83;;;;;;;13.83;100.00;101216.81;2082688;28;20426;-67
2023/03/21 03:00:55;;;;;;;10.53;5.37;;;;;;;13.95;100.00;101232.78;2082637;28;20429;-66
2023/03/21 03:01:56;;;;;;;10.50;5.40;;;;;;;13.95;100.00;101236.34;2082588;28;20500;-66
2023/03/21 03:02:58;;;;;;;8.60;5.20;;;;;;;13.97;100.00;101239.47;2082679;28;20419;-66
2023/03/21 03:03:58;;;;;;;9.57;5.20;;;;;;;13.94;100.00;101240.34;2082586;28;20436;-67
2023/03/21 03:04:59;;;;;;;7.23;5.30;;;;;;;13.98;100.00;101243.03;2082640;28;20431;-66
2023/03/21 03:06:02;;;;;;;7.03;4.87;;;;;;;13.07;100.00;101112.63;2082618;28;20219;-66
2023/03/21 03:07:18;;;;;;;7.90;5.20;;;;;;;13.98;100.00;101248.63;2082594;28;20184;-67
2023/03/21 03:08:27;;;;;;;10.53;5.20;;;;;;;13.97;100.00;101252.59;2074585;28;20427;-66
2023/03/21 03:10:05;;;;;;;9.50;5.40;;;;;;;13.96;100.00;101245.47;2074472;28;21002;-66
2023/03/21 03:11:09;;;;;;;7.73;5.40;;;;;;;13.98;100.00;101256.97;2057290;28;20461;-66
2023/03/21 03:12:43;;;;;;;7.63;5.33;;;;;;;13.95;100.00;101250.28;2076020;28;20980;-66
2023/03/21 03:14:02;;;;;;;11.70;5.47;;;;;;;14.00;100.00;101252.53;2082149;28;20531;-65
2023/03/21 03:15:20;;;;;;;8.30;5.17;;;;;;;13.95;100.00;101257.84;2082415;28;20482;-66
2023/03/21 03:16:35;;;;;;;9.83;5.23;;;;;;;13.90;100.00;101261.16;2081910;28;20510;-66
2023/03/21 03:18:08;;;;;;;10.63;4.87;;;;;;;13.86;100.00;101254.91;2082252;28;20418;-66
2023/03/21 03:19:19;;;;;;;9.97;5.17;;;;;;;12.63;100.00;101065.28;2081947;28;20538;-66
2023/03/21 03:20:22;;;;;;;8.40;5.30;;;;;;;13.76;100.00;101253.97;2082518;28;20885;-66
2023/03/21 03:21:57;;;;;;;7.50;4.90;;;;;;;13.83;100.00;101262.13;2082392;28;20431;-66
2023/03/21 03:23:10;;;;;;;9.07;5.20;;;;;;;13.79;100.00;101247.50;2082296;28;20427;-66
2023/03/21 03:24:20;;;;;;;8.30;4.97;;;;;;;13.75;100.00;101237.69;2082617;28;20403;-67
2023/03/21 03:25:47;;;;;;;7.77;5.10;;;;;;;13.79;100.00;101243.97;2082635;28;20867;-66
2023/03/21 03:26:58;;;;;;;9.03;5.03;;;;;;;13.85;100.00;101251.34;2082579;28;20505;-66
2023/03/21 03:28:00;;;;;;;9.70;5.43;;;;;;;12.98;100.00;101118.06;2082477;28;20410;-66
2023/03/21 03:29:05;;;;;;;10.67;4.70;;;;;;;13.77;100.00;101247.19;2082594;28;20427;-66
2023/03/21 03:30:09;;;;;;;14.17;6.13;;;;;;;13.75;100.00;101244.06;2082450;28;20408;-66
2023/03/21 03:31:13;;;;;;;9.40;4.80;;;;;;;13.68;100.00;101237.91;2082406;28;20418;-66
2023/03/21 03:32:24;;;;;;;7.73;5.10;;;;;;;13.73;100.00;101246.50;2082473;28;20419;-66
2023/03/21 03:33:26;;;;;;;8.03;5.23;;;;;;;13.77;100.00;101247.19;2082573;28;20428;-66
2023/03/21 03:34:38;;;;;;;18.17;6.70;;;;;;;13.17;100.00;101147.75;2082449;28;20422;-66
2023/03/21 03:35:38;;;;;;;9.00;5.80;;;;;;;13.76;100.00;101248.41;2082364;28;20841;-66
2023/03/21 03:36:46;;;;;;;9.20;4.90;;;;;;;13.79;100.00;101249.53;2082379;28;20419;-66
2023/03/21 03:37:51;;;;;;;8.00;4.77;;;;;;;13.74;100.00;101253.63;2082552;28;20625;-66
2023/03/21 03:38:53;;;;;;;14.77;5.90;;;;;;;13.74;100.00;101258.44;2082585;28;20408;-67
2023/03/21 03:40:07;;;;;;;15.13;5.87;;;;;;;13.77;100.00;101254.75;2082204;28;20419;-67
2023/03/21 03:41:17;;;;;;;8.13;5.40;;;;;;;13.71;100.00;101250.94;2082359;28;20779;-66
2023/03/21 03:42:27;;;;;;;10.77;5.23;;;;;;;13.64;100.00;101253.91;2082134;28;20472;-66
2023/03/21 03:43:34;;;;;;;10.77;5.30;;;;;;;13.64;100.00;101251.94;2082370;28;20461;-66
2023/03/21 03:44:36;;;;;;;9.53;5.43;;;;;;;13.65;100.00;101249.91;2073700;28;20447;-66
2023/03/21 03:45:59;;;;;;;8.63;5.10;;;;;;;13.33;100.00;101206.19;2073510;28;20408;-66
2023/03/21 03:47:02;;;;;;;10.03;5.83;;;;;;;13.62;100.00;101253.59;2074046;28;20466;-67
2023/03/21 03:48:24;;;;;;;10.43;5.63;;;;;;;13.56;100.00;101256.09;2074131;28;20508;-66
2023/03/21 03:49:30;;;;;;;8.27;5.37;;;;;;;13.58;100.00;101255.69;2074077;28;20415;-67
2023/03/21 03:50:40;;;;;;;8.30;5.63;;;;;;;13.58;100.00;101253.66;2082128;28;20426;-67
2023/03/21 03:51:57;;;;;;;10.40;5.67;;;;;;;13.49;100.00;101241.59;2082312;28;20470;-66
2023/03/21 03:53:26;;;;;;;8.17;5.20;;;;;;;12.94;100.00;101161.84;2082250;28;20402;-66
2023/03/21 03:54:39;;;;;;;10.10;5.97;;;;;;;13.03;100.00;101184.31;2082188;28;20418;-66
2023/03/21 03:55:40;;;;;;;8.63;5.17;;;;;;;13.52;100.00;101251.84;2082205;28;20408;-65
2023/03/21 03:56:41;;;;;;;8.80;5.90;;;;;;;13.46;100.00;101254.38;2082332;28;20419;-66
2023/03/21 03:57:42;;;;;;;8.37;5.10;;;;;;;13.17;100.00;101213.78;2082064;28;20438;-67
2023/03/21 03:58:43;;;;;;;10.83;5.73;;;;;;;13.46;100.00;101259.94;2081293;28;20181;-67
2023/03/21 03:59:45;;;;;;;7.43;5.23;;;;;;;13.36;100.00;101249.06;2082326;28;20269;-67
2023/03/21 04:00:46;;;;;;;9.50;5.23;;;;;;;13.43;100.00;101257.25;2082289;28;20473;-66
2023/03/21 04:01:47;;;;;;;8.27;5.37;;;;;;;13.44;100.00;101254.03;2082005;28;20420;-65
2023/03/21 04:02:47;;;;;;;8.57;6.03;;;;;;;13.42;100.00;101256.47;2082149;28;20522;-67
2023/03/21 04:03:48;;;;;;;8.43;5.80;;;;;;;13.42;100.00;101275.94;2082202;28;20200;-66
2023/03/21 04:04:51;;;;;;;7.90;5.77;;;;;;;12.36;100.00;101098.13;2082257;28;20254;-66
2023/03/21 04:05:52;;;;;;;8.47;6.53;;;;;;;13.36;100.00;101260.19;2082193;28;20218;-66
2023/03/21 04:06:53;;;;;;;10.10;7.90;;;;;;;13.30;100.00;101253.59;2082110;28;20429;-66
2023/03/21 04:07:54;;;;;;;12.87;9.13;;;;;;;13.11;100.00;101244.13;2082104;28;20422;-66
2023/03/21 04:08:55;;;;;;;12.37;9.47;;;;;;;13.22;100.00;101274.50;2082295;28;20411;-66
2023/03/21 04:09:56;;;;;;;11.23;8.93;;;;;;;13.22;100.00;101274.50;2082142;28;20180;-66
2023/03/21 04:10:57;;;;;;;10.60;8.87;;;;;;;13.23;100.00;101276.81;2081830;28;21035;-66
2023/03/21 04:11:57;;;;;;;11.20;7.77;;;;;;;12.89;100.00;101229.13;2082081;28;20187;-66
2023/03/21 04:12:58;;;;;;;9.57;7.90;;;;;;;13.19;100.00;101280.91;2082163;28;20191;-65
2023/03/21 04:13:58;;;;;;;10.40;8.30;;;;;;;13.11;100.00;101293.44;2082140;28;20211;-66
2023/03/21 04:14:59;;;;;;;12.17;8.83;;;;;;;13.03;100.00;101287.25;2081365;28;20232;-66
2023/03/21 04:15:59;;;;;;;12.33;8.97;;;;;;;13.02;100.00;101296.81;2079695;28;20636;-66
2023/03/21 04:17:00;;;;;;;11.70;8.70;;;;;;;12.93;100.00;101285.47;2082047;28;20206;-66
2023/03/21 04:18:01;;;;;;;10.33;8.90;;;;;;;12.73;100.00;101262.50;2082101;28;20183;-67
2023/03/21 04:19:01;;;;;;;12.53;9.00;;;;;;;13.00;100.00;101296.47;2081431;28;20180;-66
2023/03/21 04:20:04;;;;;;;10.13;8.37;;;;;;;13.00;100.00;101292.88;2081373;28;20469;-66
2023/03/21 04:21:12;;;;;;;12.73;9.40;;;;;;;12.95;100.00;101285.03;2073850;28;20181;-66
2023/03/21 04:22:12;;;;;;;12.20;8.97;;;;;;;12.27;100.00;101192.44;2077157;28;20541;-66
2023/03/21 04:23:13;;;;;;;10.00;8.37;;;;;;;12.86;100.00;101291.19;2082055;28;20426;-65
2023/03/21 04:24:14;;;;;;;10.80;8.87;;;;;;;12.92;100.00;101297.78;2082016;28;20267;-66
2023/03/21 04:25:14;;;;;;;12.23;8.97;;;;;;;12.77;100.00;101271.53;2081941;28;20186;-66
2023/03/21 04:26:15;;;;;;;11.50;8.63;;;;;;;12.95;100.00;101301.72;2082229;28;20190;-65
2023/03/21 04:27:15;;;;;;;12.33;8.80;;;;;;;12.94;100.00;101298.16;2082008;28;20225;-67
2023/03/21 04:28:16;;;;;;;13.10;8.60;;;;;;;12.05;100.00;101158.75;2081990;28;20256;-69
2023/03/21 04:29:16;;;;;;;12.70;8.63;;;;;;;12.94;100.00;101303.72;2081871;28;20182;-68
2023/03/21 04:30:18;;;;;;;10.40;8.23;;;;;;;12.84;100.00;101278.94;2082049;28;20222;-68
2023/03/21 04:31:18;;;;;;;9.03;7.90;;;;;;;12.95;100.00;101301.72;2081943;28;20650;-68
2023/03/21 04:32:23;;;;;;;10.77;7.93;;;;;;;12.96;100.00;101297.78;2081931;28;20802;-68
2023/03/21 04:33:24;;;;;;;11.67;8.53;;;;;;;12.90;100.00;101289.13;2082017;28;20185;-68
2023/03/21 04:34:27;;;;;;;11.77;8.30;;;;;;;12.87;100.00;101289.97;2081785;28;20439;-69
2023/03/21 04:35:27;;;;;;;16.27;9.10;;;;;;;12.82;100.00;101287.69;2073833;28;20432;-69
2023/03/21 04:36:37;;;;;;;12.77;8.60;;;;;;;12.02;100.00;101183.84;2073746;28;20459;-68
2023/03/21 04:37:38;;;;;;;14.73;8.40;;;;;;;12.63;100.00;101285.75;2073471;28;20184;-68
2023/03/21 04:38:38;;;;;;;11.77;8.30;;;;;;;12.60;100.00;101294.19;2078630;28;20966;-69
2023/03/21 04:39:39;;;;;;;12.80;7.67;;;;;;;12.64;100.00;101292.88;2081955;28;20207;-69
2023/03/21 04:40:39;;;;;;;11.97;8.73;;;;;;;12.68;100.00;101292.78;2081960;28;20187;-68
2023/03/21 04:41:41;;;;;;;11.57;8.57;;;;;;;12.63;100.00;101276.63;2081876;28;20185;-69
2023/03/21 04:42:42;;;;;;;15.73;9.33;;;;;;;12.71;100.00;101303.06;2081519;28;20298;-67
2023/03/21 04:43:43;;;;;;;12.17;8.57;;;;;;;12.66;100.00;101296.00;2081609;28;20442;-69
2023/03/21 04:44:45;;;;;;;25.33;9.53;;;;;;;12.71;100.00;101295.50;2081845;28;20411;-68
2023/03/21 04:45:45;;;;;;;26.17;9.53;;;;;;;12.54;100.00;101282.75;2081776;28;20237;-68
2023/03/21 04:46:46;;;;;;;30.83;8.83;;;;;;;12.48;100.00;101272.56;2081719;28;20469;-68
2023/03/21 04:47:46;;;;;;;16.47;8.93;;;;;;;12.28;100.00;101266.25;2076752;28;20249;-68
2023/03/21 04:48:47;;;;;;;14.60;8.73;;;;;;;12.66;100.00;101306.34;2081840;28;20173;-68
2023/03/21 04:49:48;;;;;;;16.87;8.20;;;;;;;12.67;100.00;101302.34;2081824;28;20603;-69
2023/03/21 04:50:49;;;;;;;11.97;8.23;;;;;;;12.68;100.00;101310.28;2080830;28;20426;-69
2023/03/21 04:51:49;;;;;;;15.17;8.80;;;;;;;12.59;100.00;101312.84;2075330;28;20169;-68
2023/03/21 04:52:49;;;;;;;12.83;8.20;;;;;;;12.55;100.00;101314.16;2081851;28;20571;-69
2023/03/21 04:53:51;;;;;;;15.53;8.63;;;;;;;12.56;100.00;101310.16;2081864;28;20231;-69
2023/03/21 04:54:51;;;;;;;13.90;8.30;;;;;;;12.50;100.00;101320.97;2081696;28;20201;-69
2023/03/21 04:55:52;;;;;;;16.20;8.67;;;;;;;12.53;100.00;101314.56;2081367;28;20420;-67
2023/03/21 04:56:52;;;;;;;14.17;9.00;;;;;;;12.55;100.00;101328.81;2079369;28;20224;-64
2023/03/21 04:57:53;;;;;;;13.53;9.13;;;;;;;12.59;100.00;101312.06;2078282;28;20197;-69